Gunvor Maersk — OYGC2 — position and weather

sailwx.info

Track history (hours):
 
Tides and Currents Weather Stations Pressure Air Temp Water Temp Dewpoint Dewpoint Depression Visibility Wind Speed Wind Dir Waves Ship Positions

Gunvor Maersk

Last reported at 2017-Nov-24 00:00 UTC. Time now 2017-Nov-24 00:24 UTC.
Position N 34°17' W 120°09'.

Length 367 m; draft 12.5 m.

Type: Cargo ship. MMSI: 220413000.

Date/timePositionNaut miles runAvg speedWind from/ knotsBaromVisibWave heightAir tempDewpointWater temp
2017-Nov-24 00:00N 34°17' W 120°09'612.4
2017-Nov-23 23:29N 34°16' W 120°02'612.2
2017-Nov-23 23:00N 34°14' W 119°55'611.8
2017-Nov-23 22:30N 34°12' W 119°48'612.1
2017-Nov-23 22:00N 34°10' W 119°41'612.5
2017-Nov-23 21:29N 34°08' W 119°34'712.4
2017-Nov-23 20:56N 34°06' W 119°26'512.6
2017-Nov-23 20:30N 34°05' W 119°20'712.4
2017-Nov-23 19:55N 34°02' W 119°11'812.6
2017-Nov-23 19:19N 33°59' W 119°03'1011.1
2017-Nov-23 18:24N 33°54' W 118°53'811.3
2017-Nov-23 17:44N 33°50' W 118°45'311.4
2017-Nov-23 17:30N 33°49' W 118°42'611.2
2017-Nov-23 16:59N 33°46' W 118°36'511.2
2017-Nov-23 16:30N 33°43' W 118°30'611.3
2017-Nov-23 16:00N 33°40' W 118°24'611.2
2017-Nov-23 15:30N 33°38' W 118°18'8 8.5
2017-Nov-23 14:34N 33°44' W 118°11'110.3
2017-Nov-23 14:30N 33°44' W 118°12'  
2017-Nov-19 12:13N 33°45' W 118°14'0 0.5
2017-Nov-19 11:54N 33°45' W 118°14'2 3.8
2017-Nov-19 11:30N 33°44' W 118°13'4 8.3
2017-Nov-19 11:00N 33°41' W 118°11'3 5.6
2017-Nov-19 10:30N 33°38' W 118°12'3 6.2
2017-Nov-19 10:00N 33°36' W 118°15'5 9.6
2017-Nov-19 09:30N 33°36' W 118°21'510.5
2017-Nov-19 09:00N 33°39' W 118°27'510.8
2017-Nov-19 08:30N 33°42' W 118°32'510.7
2017-Nov-19 08:00N 33°44' W 118°38'510.6
2017-Nov-19 07:30N 33°47' W 118°43'510.6
2017-Nov-19 07:00N 33°49' W 118°49'510.9
2017-Nov-19 06:30N 33°52' W 118°55'510.8
2017-Nov-19 06:00N 33°55' W 119°00'510.4
2017-Nov-19 05:30N 33°57' W 119°06'713.5
2017-Nov-19 05:00N 34°01' W 119°13'714.2
2017-Nov-19 04:30N 34°04' W 119°21'713.5
2017-Nov-19 03:59N 34°05' W 119°29'612.6
2017-Nov-19 03:30N 34°07' W 119°36'612.8
2017-Nov-19 02:59N 34°09' W 119°44'612.8
2017-Nov-19 02:30N 34°10' W 119°51'613.0
2017-Nov-19 02:00N 34°12' W 119°58'712.7
2017-Nov-19 01:28N 34°14' W 120°07'611.6
2017-Nov-19 00:59N 34°15' W 120°13'611.4
2017-Nov-19 00:30N 34°17' W 120°20'610.7
2017-Nov-18 23:57N 34°18' W 120°26'510.4
2017-Nov-18 23:28N 34°20' W 120°32'510.6
2017-Nov-18 23:00N 34°21' W 120°38'510.5
2017-Nov-18 22:29N 34°22' W 120°44'510.6
2017-Nov-18 21:59N 34°24' W 120°51'611.1
2017-Nov-18 21:29N 34°26' W 120°56'715.8
2017-Nov-18 21:00N 34°30' W 121°04'816.1
2017-Nov-18 20:30N 34°35' W 121°12'815.9
2017-Nov-18 20:00N 34°39' W 121°21'816.4
2017-Nov-18 19:30N 34°43' W 121°29'816.3
2017-Nov-18 19:00N 34°47' W 121°38'816.1
2017-Nov-18 18:30N 34°52' W 121°46'9217.7
2017-Nov-18 13:19N 35°38' W 123°23'  
Track history (hours):
 
Tides and Currents Weather Stations Pressure Air Temp Water Temp Dewpoint Dewpoint Depression Visibility Wind Speed Wind Dir Waves Ship Positions

Gunvor Maersk

Last reported at 2017-Nov-24 00:00 UTC. Time now 2017-Nov-24 00:24 UTC.
Position N 34°17' W 120°09'.

Length 367 m; draft 12.5 m.

Type: Cargo ship. MMSI: 220413000.

Date/timePositionNaut miles runAvg speedWind from/ knotsBaromVisibWave heightAir tempDewpointWater temp
2017-Nov-24 00:00N 34°17' W 120°09'612.4
2017-Nov-23 23:29N 34°16' W 120°02'612.2
2017-Nov-23 23:00N 34°14' W 119°55'611.8
2017-Nov-23 22:30N 34°12' W 119°48'612.1
2017-Nov-23 22:00N 34°10' W 119°41'612.5
2017-Nov-23 21:29N 34°08' W 119°34'712.4
2017-Nov-23 20:56N 34°06' W 119°26'512.6
2017-Nov-23 20:30N 34°05' W 119°20'712.4
2017-Nov-23 19:55N 34°02' W 119°11'812.6
2017-Nov-23 19:19N 33°59' W 119°03'1011.1
2017-Nov-23 18:24N 33°54' W 118°53'811.3
2017-Nov-23 17:44N 33°50' W 118°45'311.4
2017-Nov-23 17:30N 33°49' W 118°42'611.2
2017-Nov-23 16:59N 33°46' W 118°36'511.2
2017-Nov-23 16:30N 33°43' W 118°30'611.3
2017-Nov-23 16:00N 33°40' W 118°24'611.2
2017-Nov-23 15:30N 33°38' W 118°18'8 8.5
2017-Nov-23 14:34N 33°44' W 118°11'110.3
2017-Nov-23 14:30N 33°44' W 118°12'  
2017-Nov-19 12:13N 33°45' W 118°14'0 0.5
2017-Nov-19 11:54N 33°45' W 118°14'2 3.8
2017-Nov-19 11:30N 33°44' W 118°13'4 8.3
2017-Nov-19 11:00N 33°41' W 118°11'3 5.6
2017-Nov-19 10:30N 33°38' W 118°12'3 6.2
2017-Nov-19 10:00N 33°36' W 118°15'5 9.6
2017-Nov-19 09:30N 33°36' W 118°21'510.5
2017-Nov-19 09:00N 33°39' W 118°27'510.8
2017-Nov-19 08:30N 33°42' W 118°32'510.7
2017-Nov-19 08:00N 33°44' W 118°38'510.6
2017-Nov-19 07:30N 33°47' W 118°43'510.6
2017-Nov-19 07:00N 33°49' W 118°49'510.9
2017-Nov-19 06:30N 33°52' W 118°55'510.8
2017-Nov-19 06:00N 33°55' W 119°00'510.4
2017-Nov-19 05:30N 33°57' W 119°06'713.5
2017-Nov-19 05:00N 34°01' W 119°13'714.2
2017-Nov-19 04:30N 34°04' W 119°21'713.5
2017-Nov-19 03:59N 34°05' W 119°29'612.6
2017-Nov-19 03:30N 34°07' W 119°36'612.8
2017-Nov-19 02:59N 34°09' W 119°44'612.8
2017-Nov-19 02:30N 34°10' W 119°51'613.0
2017-Nov-19 02:00N 34°12' W 119°58'712.7
2017-Nov-19 01:28N 34°14' W 120°07'611.6
2017-Nov-19 00:59N 34°15' W 120°13'611.4
2017-Nov-19 00:30N 34°17' W 120°20'610.7
2017-Nov-18 23:57N 34°18' W 120°26'510.4
2017-Nov-18 23:28N 34°20' W 120°32'510.6
2017-Nov-18 23:00N 34°21' W 120°38'510.5
2017-Nov-18 22:29N 34°22' W 120°44'510.6
2017-Nov-18 21:59N 34°24' W 120°51'611.1
2017-Nov-18 21:29N 34°26' W 120°56'715.8
2017-Nov-18 21:00N 34°30' W 121°04'816.1
2017-Nov-18 20:30N 34°35' W 121°12'815.9
2017-Nov-18 20:00N 34°39' W 121°21'816.4
2017-Nov-18 19:30N 34°43' W 121°29'816.3
2017-Nov-18 19:00N 34°47' W 121°38'816.1
2017-Nov-18 18:30N 34°52' W 121°46'9217.7
2017-Nov-18 13:19N 35°38' W 123°23'  

Dump ship's entire track history